createdAt,value
2023-05-05T00:03:09.948Z,38
2023-05-05T00:08:40.347Z,38
2023-05-05T00:14:10.793Z,37.5
2023-05-05T00:19:41.738Z,38
2023-05-05T00:25:12.003Z,38
2023-05-05T00:30:42.492Z,38
2023-05-05T00:36:13.072Z,38
2023-05-05T00:41:43.559Z,38
2023-05-05T00:47:14.135Z,38
2023-05-05T00:52:44.613Z,38
2023-05-05T00:58:15.119Z,38
2023-05-05T01:03:45.848Z,37.5
2023-05-05T01:09:16.205Z,38
2023-05-05T01:14:46.670Z,38
2023-05-05T01:20:17.274Z,37.5
2023-05-05T01:25:47.822Z,38
2023-05-05T01:31:17.344Z,38
2023-05-05T01:36:47.782Z,38
2023-05-05T01:42:18.283Z,38
2023-05-05T01:47:49.062Z,38
2023-05-05T01:53:19.475Z,38
2023-05-05T01:58:50.055Z,38
2023-05-05T02:04:20.517Z,38
2023-05-05T02:09:51.066Z,38
2023-05-05T02:15:21.657Z,38
2023-05-05T02:26:22.655Z,38
2023-05-05T02:31:53.303Z,38
2023-05-05T02:37:23.792Z,38
2023-05-05T02:42:54.358Z,38
2023-05-05T02:48:24.872Z,38.5
2023-05-05T02:53:55.338Z,38.5
2023-05-05T02:59:25.939Z,38.5
2023-05-05T03:04:56.426Z,38.5
2023-05-05T03:10:26.875Z,38.5
2023-05-05T03:15:56.420Z,38.5
2023-05-05T03:21:26.839Z,38.5
2023-05-05T03:26:57.335Z,38.5
2023-05-05T03:32:27.914Z,38.5
2023-05-05T03:37:58.383Z,38.5
2023-05-05T03:43:28.971Z,38.5
2023-05-05T03:48:59.492Z,38.5
2023-05-05T03:54:29.978Z,38.5
2023-05-05T04:00:00.597Z,38.5
2023-05-05T04:05:31.054Z,38.5
2023-05-05T04:11:01.519Z,38.5
2023-05-05T04:16:32.201Z,38.5
2023-05-05T04:22:02.651Z,38.5
2023-05-05T04:27:33.197Z,39
2023-05-05T04:33:03.738Z,39.5
2023-05-05T04:38:34.169Z,40
2023-05-05T04:44:04.709Z,40
2023-05-05T04:49:35.216Z,40
2023-05-05T04:55:05.657Z,40
2023-05-05T05:00:36.299Z,40
2023-05-05T05:06:06.755Z,40
2023-05-05T05:11:37.234Z,40
2023-05-05T05:17:06.733Z,40
2023-05-05T05:22:37.208Z,39.5
2023-05-05T05:28:10.608Z,40
2023-05-05T05:33:38.286Z,39.5
2023-05-05T05:39:08.765Z,39.5
2023-05-05T05:44:39.356Z,39.5
2023-05-05T05:50:10.010Z,39.5
2023-05-05T05:55:40.411Z,39.5
2023-05-05T06:01:10.983Z,39.5
2023-05-05T06:06:41.467Z,39.5
2023-05-05T06:12:12.094Z,39.5
2023-05-05T06:17:42.786Z,39.5
2023-05-05T06:23:13.164Z,39.5
2023-05-05T06:28:43.913Z,39.5
2023-05-05T06:34:14.398Z,39.5
2023-05-05T06:39:44.849Z,39.5
2023-05-05T06:45:15.546Z,39.5
2023-05-05T06:50:45.914Z,39.5
2023-05-05T06:56:16.799Z,39.5
2023-05-05T07:01:47.008Z,39.5
2023-05-05T07:07:17.480Z,39
2023-05-05T07:12:48.139Z,39
2023-05-05T07:18:18.545Z,39
2023-05-05T07:23:49.021Z,39
2023-05-05T07:29:18.524Z,39
2023-05-05T07:34:48.964Z,39
2023-05-05T07:40:19.480Z,39
2023-05-05T07:45:50.106Z,38.5
2023-05-05T07:51:20.507Z,38.5
2023-05-05T07:56:51.054Z,38.5
2023-05-05T08:02:20.598Z,38.5
2023-05-05T08:07:51.024Z,38.5
2023-05-05T08:13:21.624Z,38.5
2023-05-05T08:18:52.094Z,38.5
2023-05-05T08:24:22.554Z,38.5
2023-05-05T08:29:53.129Z,38.5
2023-05-05T08:35:23.616Z,38.5
2023-05-05T08:40:54.297Z,38.5
2023-05-05T08:46:24.794Z,38.5
2023-05-05T08:51:55.245Z,38.5
2023-05-05T08:57:24.742Z,38.5
2023-05-05T09:02:55.292Z,38.5
2023-05-05T09:08:25.683Z,38.5
2023-05-05T09:13:55.145Z,38.5
2023-05-05T09:19:25.625Z,38
2023-05-05T09:24:56.115Z,38
2023-05-05T09:41:26.586Z,38
2023-05-05T09:46:57.143Z,38
2023-05-05T09:53:33.875Z,38
2023-05-05T09:59:03.608Z,38
2023-05-05T10:04:34.095Z,38
2023-05-05T10:10:03.599Z,38
2023-05-05T10:15:34.367Z,38
2023-05-05T10:21:04.831Z,38
2023-05-05T10:26:35.304Z,38
2023-05-05T10:32:21.367Z,38
2023-05-05T10:38:41.694Z,38
2023-05-05T10:44:11.237Z,38
2023-05-05T10:49:41.684Z,38
2023-05-05T10:55:12.179Z,38
2023-05-05T11:00:41.673Z,38
2023-05-05T11:06:12.141Z,38
2023-05-05T11:11:42.612Z,38.5
2023-05-05T11:17:13.210Z,38.5
2023-05-05T11:39:14.109Z,38.5
2023-05-05T11:44:43.741Z,38.5
2023-05-05T11:50:14.212Z,38.5
2023-05-05T11:55:44.712Z,38.5
2023-05-05T12:01:14.204Z,38.5
2023-05-05T12:06:44.669Z,38.5
2023-05-05T12:12:15.161Z,38.5
2023-05-05T12:17:44.852Z,38.5
2023-05-05T12:23:15.105Z,38.5
2023-05-05T12:28:45.840Z,38.5
2023-05-05T12:34:16.332Z,38.5
2023-05-05T12:45:17.404Z,38.5
2023-05-05T12:50:48.027Z,38.5
2023-05-05T12:56:18.594Z,38.5
2023-05-05T13:01:49.289Z,38.5
2023-05-05T13:07:18.564Z,38.5
2023-05-05T13:12:49.071Z,38.5
2023-05-05T13:19:25.610Z,39
2023-05-05T13:24:56.192Z,39
2023-05-05T13:35:57.289Z,39.5
2023-05-05T13:41:26.789Z,39.5
2023-05-05T13:46:57.309Z,39.5
2023-05-05T13:52:29.017Z,39
2023-05-05T13:57:57.222Z,39.5
2023-05-05T14:03:27.727Z,39
2023-05-05T14:08:58.166Z,39.5
2023-05-05T14:14:28.761Z,39
2023-05-05T14:19:59.232Z,39.5
2023-05-05T14:25:28.730Z,39
2023-05-05T14:30:59.209Z,39
2023-05-05T14:36:29.671Z,39
2023-05-05T14:41:59.168Z,39.5
2023-05-05T14:47:29.688Z,39
2023-05-05T14:53:00.134Z,41
2023-05-05T14:58:29.649Z,41
2023-05-05T15:04:00.220Z,40.5
2023-05-05T15:09:29.591Z,41
2023-05-05T15:15:00.064Z,40.5
2023-05-05T15:20:30.546Z,40.5
2023-05-05T15:26:01.047Z,40.5
2023-05-05T15:31:31.659Z,40.5
2023-05-05T15:37:02.112Z,41.5
2023-05-05T15:42:32.701Z,40.5
2023-05-05T15:48:03.170Z,42
2023-05-05T15:53:33.656Z,43.5
2023-05-05T15:59:04.227Z,42.5
2023-05-05T16:10:05.176Z,46
2023-05-05T16:15:35.844Z,45
2023-05-05T16:21:06.385Z,44
2023-05-05T16:26:36.845Z,43
2023-05-05T16:32:07.409Z,42.5
2023-05-05T16:37:38.000Z,42.5
2023-05-05T16:43:08.466Z,42
2023-05-05T16:48:38.951Z,42
2023-05-05T16:54:09.524Z,42
2023-05-05T16:59:40.040Z,41.5
2023-05-05T17:05:09.809Z,41.5
2023-05-05T17:10:40.091Z,41.5
2023-05-05T17:16:10.561Z,41.5
2023-05-05T17:21:41.151Z,41.5
2023-05-05T17:27:11.636Z,41.5
2023-05-05T17:32:42.205Z,41.5
2023-05-05T17:38:11.584Z,41.5
2023-05-05T17:43:42.080Z,41.5
2023-05-05T17:49:11.554Z,41.5
2023-05-05T17:54:42.047Z,41.5
2023-05-05T18:00:12.519Z,41.5
2023-05-05T18:05:43.097Z,41
2023-05-05T18:11:13.685Z,41.5
2023-05-05T18:22:13.656Z,41
2023-05-05T18:27:44.130Z,41
2023-05-05T18:33:14.610Z,41
2023-05-05T18:38:45.185Z,41
2023-05-05T18:44:15.687Z,41
2023-05-05T18:49:46.133Z,41
2023-05-05T18:55:16.753Z,41
2023-05-05T19:00:47.226Z,41
2023-05-05T19:06:17.667Z,41
2023-05-05T19:11:47.163Z,41
2023-05-05T19:17:17.624Z,41
2023-05-05T19:22:48.133Z,41
2023-05-05T19:28:18.712Z,41
2023-05-05T19:33:49.169Z,41.5
2023-05-05T19:39:19.936Z,42
2023-05-05T19:44:50.321Z,42
2023-05-05T19:50:20.801Z,42
2023-05-05T19:55:51.388Z,42
2023-05-05T20:01:22.009Z,42
2023-05-05T20:06:52.518Z,42
2023-05-05T20:12:22.989Z,42
2023-05-05T20:17:53.657Z,42
2023-05-05T20:23:24.059Z,42
2023-05-05T20:28:54.519Z,42
2023-05-05T20:34:25.193Z,42
2023-05-05T20:39:55.613Z,42
2023-05-05T20:45:26.050Z,42
2023-05-05T20:50:56.653Z,42
2023-05-05T20:56:27.151Z,42
2023-05-05T21:01:57.867Z,42
2023-05-05T21:07:28.284Z,42
2023-05-05T21:12:58.820Z,42
2023-05-05T21:18:28.260Z,42
2023-05-05T21:23:58.759Z,42
2023-05-05T21:29:29.239Z,42
2023-05-05T21:34:58.714Z,42
2023-05-05T21:40:29.209Z,42
2023-05-05T21:45:58.731Z,42.5
2023-05-05T21:51:29.175Z,42.5
2023-05-05T21:56:59.654Z,42.5
2023-05-05T22:03:36.423Z,42.5
2023-05-05T22:09:06.783Z,42.5
2023-05-05T22:14:37.407Z,42.5
2023-05-05T22:20:07.065Z,42.5
2023-05-05T22:25:37.385Z,42.5
2023-05-05T22:31:06.871Z,42.5
2023-05-05T22:36:37.330Z,42.5
2023-05-05T22:42:08.030Z,42.5
2023-05-05T22:47:38.314Z,42.5
2023-05-05T22:53:08.862Z,42.5
2023-05-05T22:58:39.328Z,42.5
2023-05-05T23:04:09.945Z,42.5
2023-05-05T23:09:40.406Z,42.5
2023-05-05T23:15:11.404Z,42.5
2023-05-05T23:20:41.609Z,42.5
2023-05-05T23:26:12.072Z,42.5
2023-05-05T23:31:42.563Z,42.5
2023-05-05T23:37:13.133Z,42.5
2023-05-05T23:42:43.737Z,42.5
2023-05-05T23:48:13.218Z,42.5
2023-05-05T23:53:43.730Z,42.5
2023-05-05T23:59:13.186Z,42.5
